createdAt,value
2019-01-27T00:00:32.135Z,987.20
2019-01-27T00:01:32.119Z,987.15
2019-01-27T00:02:32.087Z,987.22
2019-01-27T00:03:32.065Z,987.11
2019-01-27T00:04:32.038Z,987.17
2019-01-27T00:05:32.018Z,987.11
2019-01-27T00:06:31.988Z,987.05
2019-01-27T00:07:31.980Z,987.00
2019-01-27T00:08:31.942Z,986.96
2019-01-27T00:09:31.914Z,986.95
2019-01-27T00:10:31.918Z,986.94
2019-01-27T00:11:31.867Z,986.94
2019-01-27T00:12:31.841Z,986.90
2019-01-27T00:13:31.820Z,986.88
2019-01-27T00:14:31.793Z,986.90
2019-01-27T00:15:31.767Z,986.88
2019-01-27T00:16:31.739Z,986.81
2019-01-27T00:17:31.731Z,986.78
2019-01-27T00:18:31.698Z,986.80
2019-01-27T00:19:31.667Z,986.77
2019-01-27T00:20:31.648Z,986.72
2019-01-27T00:21:31.635Z,986.72
2019-01-27T00:22:31.597Z,986.66
2019-01-27T00:23:31.570Z,986.70
2019-01-27T00:24:31.546Z,986.70
2019-01-27T00:25:31.522Z,986.69
2019-01-27T00:26:31.496Z,986.68
2019-01-27T00:27:31.484Z,986.65
2019-01-27T00:28:31.446Z,986.62
2019-01-27T00:29:31.421Z,986.61
2019-01-27T00:30:31.397Z,986.61
2019-01-27T00:31:31.373Z,986.51
2019-01-27T00:32:31.356Z,986.46
2019-01-27T00:33:31.332Z,986.41
2019-01-27T00:34:31.308Z,986.41
2019-01-27T00:35:31.281Z,986.36
2019-01-27T00:36:31.248Z,986.31
2019-01-27T00:37:31.238Z,986.36
2019-01-27T00:38:31.201Z,986.36
2019-01-27T00:39:31.182Z,986.37
2019-01-27T00:40:31.149Z,986.27
2019-01-27T00:41:31.131Z,986.33
2019-01-27T00:42:31.103Z,986.28
2019-01-27T00:43:31.079Z,986.32
2019-01-27T00:44:31.050Z,986.31
2019-01-27T00:45:31.041Z,986.23
2019-01-27T00:46:31.007Z,986.24
2019-01-27T00:47:30.978Z,986.25
2019-01-27T00:48:30.952Z,986.26
2019-01-27T00:49:30.927Z,986.24
2019-01-27T00:50:30.905Z,986.18
2019-01-27T00:51:30.880Z,986.21
2019-01-27T00:52:30.861Z,986.17
2019-01-27T00:53:30.829Z,986.10
2019-01-27T00:54:30.805Z,986.10
2019-01-27T00:55:30.782Z,986.10
2019-01-27T00:56:30.762Z,985.98
2019-01-27T00:57:30.741Z,985.96
2019-01-27T00:58:30.705Z,985.96
2019-01-27T00:59:30.681Z,985.95
2019-01-27T01:00:30.659Z,985.97
2019-01-27T01:01:30.637Z,985.95
2019-01-27T01:02:30.607Z,985.96
2019-01-27T01:03:30.583Z,985.95
2019-01-27T01:04:30.556Z,985.93
2019-01-27T01:05:30.533Z,985.88
2019-01-27T01:06:30.509Z,985.83
2019-01-27T01:07:30.484Z,985.80
2019-01-27T01:08:30.460Z,985.83
2019-01-27T01:09:30.434Z,985.78
2019-01-27T01:10:30.415Z,985.78
2019-01-27T01:11:30.384Z,985.69
2019-01-27T01:12:30.360Z,985.71
2019-01-27T01:13:30.337Z,985.73
2019-01-27T01:14:30.316Z,985.67
2019-01-27T01:15:30.288Z,985.70
2019-01-27T01:16:30.262Z,985.65
2019-01-27T01:17:30.247Z,985.65
2019-01-27T01:18:30.214Z,985.61
2019-01-27T01:19:30.190Z,985.59
2019-01-27T01:20:30.169Z,985.61
2019-01-27T01:21:30.150Z,985.52
2019-01-27T01:22:30.124Z,985.54
2019-01-27T01:23:30.092Z,985.46
2019-01-27T01:24:30.065Z,985.51
2019-01-27T01:25:30.044Z,985.50
2019-01-27T01:26:30.019Z,985.50
2019-01-27T01:27:30.000Z,985.48
2019-01-27T01:28:29.969Z,985.48
2019-01-27T01:29:29.946Z,985.44
2019-01-27T01:30:29.932Z,985.46
2019-01-27T01:31:29.895Z,985.39
2019-01-27T01:32:29.874Z,985.44
2019-01-27T01:33:29.847Z,985.38
2019-01-27T01:34:29.835Z,985.43
2019-01-27T01:35:29.796Z,985.40
2019-01-27T01:36:29.769Z,985.37
2019-01-27T01:37:29.743Z,985.36
2019-01-27T01:38:29.718Z,985.39
2019-01-27T01:39:29.697Z,985.34
2019-01-27T01:40:29.669Z,985.29
2019-01-27T01:41:29.645Z,985.30
2019-01-27T01:42:29.620Z,985.30
2019-01-27T01:43:29.612Z,985.26
2019-01-27T01:44:29.571Z,985.26
2019-01-27T01:45:29.548Z,985.22
2019-01-27T01:46:29.529Z,985.20
2019-01-27T01:47:29.499Z,985.18
2019-01-27T01:48:29.473Z,985.15
2019-01-27T01:49:29.459Z,985.14
2019-01-27T01:50:29.424Z,985.12
2019-01-27T01:51:29.400Z,985.07
2019-01-27T01:52:29.372Z,985.06
2019-01-27T01:53:29.354Z,985.01
2019-01-27T01:54:29.326Z,985.01
2019-01-27T01:55:29.300Z,985.04
2019-01-27T01:56:29.284Z,984.96
2019-01-27T01:57:29.250Z,984.92
2019-01-27T01:58:29.237Z,984.87
2019-01-27T01:59:29.206Z,984.79
2019-01-27T02:00:29.177Z,984.77
2019-01-27T02:01:29.151Z,984.81
2019-01-27T02:02:29.129Z,984.83
2019-01-27T02:03:29.108Z,984.79
2019-01-27T02:04:29.081Z,984.80
2019-01-27T02:05:29.061Z,984.76
2019-01-27T02:06:29.029Z,984.74
2019-01-27T02:07:29.006Z,984.74
2019-01-27T02:08:28.981Z,984.69
2019-01-27T02:09:28.955Z,984.65
2019-01-27T02:10:28.933Z,984.63
2019-01-27T02:11:28.912Z,984.63
2019-01-27T02:12:28.881Z,984.60
2019-01-27T02:13:28.858Z,984.57
2019-01-27T02:14:28.834Z,984.53
2019-01-27T02:15:28.807Z,984.55
2019-01-27T02:16:28.791Z,984.48
2019-01-27T02:17:28.761Z,984.47
2019-01-27T02:18:28.750Z,984.46
2019-01-27T02:19:28.714Z,984.43
2019-01-27T02:20:28.689Z,984.45
2019-01-27T02:21:28.661Z,984.41
2019-01-27T02:22:28.636Z,984.40
2019-01-27T02:23:28.613Z,984.37
2019-01-27T02:24:28.587Z,984.34
2019-01-27T02:25:28.563Z,984.32
2019-01-27T02:26:28.539Z,984.30
2019-01-27T02:27:28.517Z,984.30
2019-01-27T02:28:28.491Z,984.22
2019-01-27T02:29:28.469Z,984.17
2019-01-27T02:30:28.441Z,984.17
2019-01-27T02:31:28.420Z,984.12
2019-01-27T02:32:28.391Z,984.12
2019-01-27T02:33:28.366Z,984.10
2019-01-27T02:34:28.342Z,984.02
2019-01-27T02:35:28.315Z,984.01
2019-01-27T02:36:28.294Z,983.97
2019-01-27T02:37:28.265Z,983.96
2019-01-27T02:38:28.243Z,983.87
2019-01-27T02:39:28.219Z,983.97
2019-01-27T02:40:28.192Z,983.89
2019-01-27T02:41:28.168Z,983.85
2019-01-27T02:42:28.148Z,983.88
2019-01-27T02:43:28.119Z,983.82
2019-01-27T02:44:28.099Z,983.76
2019-01-27T02:45:28.070Z,983.79
2019-01-27T02:46:28.052Z,983.80
2019-01-27T02:47:28.022Z,983.74
2019-01-27T02:48:27.996Z,983.67
2019-01-27T02:49:27.970Z,983.68
2019-01-27T02:50:27.946Z,983.63
2019-01-27T02:51:27.922Z,983.63
2019-01-27T02:52:27.899Z,983.69
2019-01-27T02:53:27.872Z,983.58
2019-01-27T02:54:27.848Z,983.59
2019-01-27T02:55:27.832Z,983.60
2019-01-27T02:56:27.797Z,983.57
2019-01-27T02:57:27.779Z,983.51
2019-01-27T02:58:27.750Z,983.50
2019-01-27T02:59:27.726Z,983.45
2019-01-27T03:00:27.701Z,983.43
2019-01-27T03:01:27.676Z,983.37
2019-01-27T03:02:27.652Z,983.42
2019-01-27T03:03:27.627Z,983.34
2019-01-27T03:04:27.603Z,983.39
2019-01-27T03:05:27.582Z,983.32
2019-01-27T03:06:27.556Z,983.33
2019-01-27T03:07:27.531Z,983.28
2019-01-27T03:08:27.505Z,983.25
2019-01-27T03:09:27.478Z,983.23
2019-01-27T03:10:27.454Z,983.28
2019-01-27T03:11:27.430Z,983.18
2019-01-27T03:12:27.406Z,983.24
2019-01-27T03:13:27.381Z,983.22
2019-01-27T03:14:27.365Z,983.15
2019-01-27T03:15:27.335Z,983.21
2019-01-27T03:16:27.313Z,983.19
2019-01-27T03:17:27.279Z,983.14
2019-01-27T03:18:27.258Z,983.16
2019-01-27T03:19:27.232Z,983.15
2019-01-27T03:20:27.210Z,983.11
2019-01-27T03:21:27.182Z,983.13
2019-01-27T03:22:27.158Z,983.12
2019-01-27T03:23:27.132Z,983.14
2019-01-27T03:24:27.107Z,983.09
2019-01-27T03:25:27.091Z,983.01
2019-01-27T03:26:27.061Z,983.02
2019-01-27T03:27:27.038Z,983.00
2019-01-27T03:28:27.009Z,982.91
2019-01-27T03:29:26.987Z,982.83
2019-01-27T03:30:26.964Z,982.86
2019-01-27T03:31:26.947Z,982.86
2019-01-27T03:32:26.911Z,982.83
2019-01-27T03:33:26.887Z,982.86
2019-01-27T03:34:26.860Z,982.85
2019-01-27T03:35:26.838Z,982.88
2019-01-27T03:36:26.812Z,982.78
2019-01-27T03:37:26.788Z,982.84
2019-01-27T03:38:26.763Z,982.82
2019-01-27T03:39:26.741Z,982.81
2019-01-27T03:40:26.717Z,982.79
2019-01-27T03:41:26.690Z,982.79
2019-01-27T03:42:26.663Z,982.78
2019-01-27T03:43:26.641Z,982.74
2019-01-27T03:44:26.615Z,982.70
2019-01-27T03:45:26.591Z,982.67
2019-01-27T03:46:26.567Z,982.62
2019-01-27T03:47:26.542Z,982.60
2019-01-27T03:48:26.526Z,982.57
2019-01-27T03:49:26.492Z,982.56
2019-01-27T03:50:26.471Z,982.57
2019-01-27T03:51:26.445Z,982.54
2019-01-27T03:52:26.419Z,982.52
2019-01-27T03:53:26.395Z,982.51
2019-01-27T03:54:26.372Z,982.48
2019-01-27T03:55:26.352Z,982.47
2019-01-27T03:56:26.320Z,982.48
2019-01-27T03:57:26.297Z,982.43
2019-01-27T03:58:26.294Z,982.36
2019-01-27T03:59:26.248Z,982.34
2019-01-27T04:00:26.222Z,982.36
2019-01-27T04:01:26.200Z,982.39
2019-01-27T04:02:26.178Z,982.34
2019-01-27T04:03:26.147Z,982.35
2019-01-27T04:04:26.147Z,982.36
2019-01-27T04:05:26.098Z,982.34
2019-01-27T04:06:26.074Z,982.35
2019-01-27T04:07:26.058Z,982.31
2019-01-27T04:08:26.025Z,982.29
2019-01-27T04:09:26.008Z,982.35
2019-01-27T04:10:25.987Z,982.31
2019-01-27T04:11:25.954Z,982.29
2019-01-27T04:12:25.930Z,982.25
2019-01-27T04:13:25.902Z,982.27
2019-01-27T04:14:25.878Z,982.23
2019-01-27T04:15:25.855Z,982.23
2019-01-27T04:16:25.828Z,982.22
2019-01-27T04:17:25.804Z,982.21
2019-01-27T04:18:25.783Z,982.20
2019-01-27T04:19:25.763Z,982.18
2019-01-27T04:20:25.729Z,982.14
2019-01-27T04:21:25.720Z,982.06
2019-01-27T04:22:25.681Z,982.02
2019-01-27T04:23:25.655Z,982.01
2019-01-27T04:24:25.630Z,982.05
2019-01-27T04:25:25.606Z,981.96
2019-01-27T04:26:25.588Z,981.95
2019-01-27T04:27:25.566Z,982.00
2019-01-27T04:28:25.532Z,981.84
2019-01-27T04:29:25.510Z,981.89
2019-01-27T04:30:25.484Z,981.85
2019-01-27T04:31:25.463Z,981.84
2019-01-27T04:32:25.434Z,981.87
2019-01-27T04:33:25.411Z,981.83
2019-01-27T04:34:25.386Z,981.84
2019-01-27T04:35:25.366Z,981.79
2019-01-27T04:36:25.338Z,981.79
2019-01-27T04:37:25.318Z,981.77
2019-01-27T04:38:25.287Z,981.77
2019-01-27T04:39:25.331Z,981.72
2019-01-27T04:40:25.242Z,981.72
2019-01-27T04:41:25.214Z,981.65
2019-01-27T04:42:25.198Z,981.68
2019-01-27T04:43:25.166Z,981.56
2019-01-27T04:44:25.142Z,981.56
2019-01-27T04:45:25.118Z,981.59
2019-01-27T04:46:25.093Z,981.50
2019-01-27T04:47:25.069Z,981.59
2019-01-27T04:48:25.041Z,981.54
2019-01-27T04:49:25.015Z,981.48
2019-01-27T04:50:24.994Z,981.51
2019-01-27T04:51:24.968Z,981.45
2019-01-27T04:52:24.944Z,981.41
2019-01-27T04:53:24.921Z,981.42
2019-01-27T04:54:24.907Z,981.39
2019-01-27T04:55:24.870Z,981.39
2019-01-27T04:56:24.851Z,981.36
2019-01-27T04:57:24.822Z,981.39
2019-01-27T04:58:24.795Z,981.37
2019-01-27T04:59:24.773Z,981.34
2019-01-27T05:00:24.749Z,981.33
2019-01-27T05:01:24.721Z,981.32
2019-01-27T05:02:24.700Z,981.32
2019-01-27T05:03:24.676Z,981.33
2019-01-27T05:04:24.649Z,981.31
2019-01-27T05:05:24.628Z,981.29
2019-01-27T05:06:24.605Z,981.32
2019-01-27T05:07:24.575Z,981.31
2019-01-27T05:08:24.550Z,981.24
2019-01-27T05:09:24.524Z,981.26
2019-01-27T05:10:24.500Z,981.32
2019-01-27T05:11:24.478Z,981.28
2019-01-27T05:12:24.450Z,981.27
2019-01-27T05:13:24.426Z,981.28
2019-01-27T05:14:24.408Z,981.28
2019-01-27T05:15:24.378Z,981.30
2019-01-27T05:16:24.354Z,981.32
2019-01-27T05:17:24.330Z,981.30
2019-01-27T05:18:24.349Z,981.21
2019-01-27T05:19:24.280Z,981.15
2019-01-27T05:20:24.263Z,981.15
2019-01-27T05:21:24.232Z,981.13
2019-01-27T05:22:24.207Z,981.11
2019-01-27T05:23:24.183Z,981.10
2019-01-27T05:24:24.159Z,981.08
2019-01-27T05:25:24.132Z,981.09
2019-01-27T05:26:24.122Z,981.03
2019-01-27T05:27:25.393Z,981.01
2019-01-27T05:28:24.063Z,980.99
2019-01-27T05:29:24.035Z,980.94
2019-01-27T05:30:24.010Z,980.92
2019-01-27T05:31:23.985Z,980.93
2019-01-27T05:32:23.960Z,980.93
2019-01-27T05:33:23.938Z,980.90
2019-01-27T05:34:23.913Z,980.86
2019-01-27T05:35:23.888Z,980.87
2019-01-27T05:36:23.873Z,980.85
2019-01-27T05:37:23.838Z,980.85
2019-01-27T05:38:23.816Z,980.74
2019-01-27T05:39:23.796Z,980.77
2019-01-27T05:40:23.768Z,980.75
2019-01-27T05:41:23.744Z,980.70
2019-01-27T05:42:23.714Z,980.74
2019-01-27T05:43:23.689Z,980.76
2019-01-27T05:44:23.667Z,980.72
2019-01-27T05:45:23.648Z,980.72
2019-01-27T05:46:23.617Z,980.66
2019-01-27T05:47:23.594Z,980.67
2019-01-27T05:48:23.566Z,980.66
2019-01-27T05:49:23.542Z,980.59
2019-01-27T05:50:23.519Z,980.63
2019-01-27T05:51:23.499Z,980.60
2019-01-27T05:52:23.476Z,980.58
2019-01-27T05:53:23.445Z,980.59
2019-01-27T05:54:23.420Z,980.61
2019-01-27T05:55:23.396Z,980.57
2019-01-27T05:56:23.374Z,980.58
2019-01-27T05:57:23.350Z,980.54
2019-01-27T05:58:23.322Z,980.53
2019-01-27T05:59:23.300Z,980.50
2019-01-27T06:00:23.283Z,980.49
2019-01-27T06:01:23.248Z,980.50
2019-01-27T06:02:23.225Z,980.48
2019-01-27T06:03:23.200Z,980.48
2019-01-27T06:04:23.175Z,980.48
2019-01-27T06:05:23.153Z,980.37
2019-01-27T06:06:23.134Z,980.42
2019-01-27T06:07:23.102Z,980.39
2019-01-27T06:08:23.077Z,980.41
2019-01-27T06:09:23.053Z,980.39
2019-01-27T06:10:23.042Z,980.38
2019-01-27T06:11:23.006Z,980.38
2019-01-27T06:12:22.978Z,980.32
2019-01-27T06:13:22.955Z,980.26
2019-01-27T06:14:22.936Z,980.34
2019-01-27T06:15:22.908Z,980.35
2019-01-27T06:16:22.879Z,980.38
2019-01-27T06:17:22.860Z,980.31
2019-01-27T06:18:22.834Z,980.33
2019-01-27T06:19:22.811Z,980.31
2019-01-27T06:20:22.785Z,980.25
2019-01-27T06:21:22.758Z,980.35
2019-01-27T06:22:22.734Z,980.31
2019-01-27T06:23:22.714Z,980.30
2019-01-27T06:24:22.686Z,980.26
2019-01-27T06:25:25.871Z,980.29
2019-01-27T06:26:22.634Z,980.28
2019-01-27T06:27:22.613Z,980.27
2019-01-27T06:28:22.586Z,980.26
2019-01-27T06:29:22.564Z,980.24
2019-01-27T06:30:22.536Z,980.21
2019-01-27T06:31:22.512Z,980.21
2019-01-27T06:32:22.486Z,980.18
2019-01-27T06:33:22.463Z,980.13
2019-01-27T06:34:22.442Z,980.15
2019-01-27T06:35:22.417Z,980.12
2019-01-27T06:36:22.401Z,980.11
2019-01-27T06:37:24.892Z,980.05
2019-01-27T06:38:22.341Z,980.05
2019-01-27T06:39:22.317Z,980.06
2019-01-27T06:40:22.291Z,980.09
2019-01-27T06:41:22.269Z,980.09
2019-01-27T06:42:22.246Z,980.08
2019-01-27T06:43:22.217Z,980.04
2019-01-27T06:44:22.191Z,980.00
2019-01-27T06:45:22.176Z,979.99
2019-01-27T06:46:22.143Z,980.00
2019-01-27T06:47:22.118Z,979.94
2019-01-27T06:48:22.093Z,979.95
2019-01-27T06:49:22.069Z,979.97
2019-01-27T06:50:22.046Z,979.98
2019-01-27T06:51:22.020Z,979.94
2019-01-27T06:52:21.999Z,979.93
2019-01-27T06:53:21.972Z,979.91
2019-01-27T06:54:21.946Z,979.86
2019-01-27T06:55:21.927Z,979.93
2019-01-27T06:56:21.898Z,979.93
2019-01-27T06:57:21.876Z,979.89
2019-01-27T06:58:21.849Z,979.91
2019-01-27T06:59:21.828Z,979.92
2019-01-27T07:00:21.801Z,979.92
2019-01-27T07:01:21.774Z,979.89
2019-01-27T07:02:21.751Z,979.90
2019-01-27T07:03:21.727Z,979.92
2019-01-27T07:04:21.700Z,979.90
2019-01-27T07:05:21.678Z,979.87
2019-01-27T07:06:21.654Z,979.86
2019-01-27T07:07:21.629Z,979.79
2019-01-27T07:08:21.603Z,979.82
2019-01-27T07:09:21.581Z,979.78
2019-01-27T07:10:21.559Z,979.74
2019-01-27T07:11:21.535Z,979.80
2019-01-27T07:12:21.507Z,979.80
2019-01-27T07:13:21.481Z,979.82
2019-01-27T07:14:21.461Z,979.81
2019-01-27T07:15:21.435Z,979.83
2019-01-27T07:16:21.406Z,979.81
2019-01-27T07:17:21.384Z,979.77
2019-01-27T07:18:21.365Z,979.79
2019-01-27T07:19:21.333Z,979.73
2019-01-27T07:20:21.310Z,979.72
2019-01-27T07:21:21.287Z,979.74
2019-01-27T07:22:21.270Z,979.69
2019-01-27T07:23:21.237Z,979.70
2019-01-27T07:24:21.223Z,979.73
2019-01-27T07:25:21.187Z,979.74
2019-01-27T07:26:21.161Z,979.70
2019-01-27T07:27:21.139Z,979.72
2019-01-27T07:28:21.121Z,979.74
2019-01-27T07:29:21.089Z,979.73
2019-01-27T07:30:21.074Z,979.71
2019-01-27T07:31:21.040Z,979.74
2019-01-27T07:32:21.016Z,979.70
2019-01-27T07:33:21.011Z,979.77
2019-01-27T07:34:20.974Z,979.77
2019-01-27T07:35:20.943Z,979.73
2019-01-27T07:36:20.927Z,979.72
2019-01-27T07:37:20.894Z,979.74
2019-01-27T07:38:20.870Z,979.75
2019-01-27T07:39:20.846Z,979.72
2019-01-27T07:40:20.824Z,979.70
2019-01-27T07:41:20.806Z,979.69
2019-01-27T07:42:20.781Z,979.69
2019-01-27T07:43:20.748Z,979.67
2019-01-27T07:44:20.725Z,979.64
2019-01-27T07:45:20.700Z,979.63
2019-01-27T07:46:20.674Z,979.62
2019-01-27T07:47:20.660Z,979.59
2019-01-27T07:48:20.628Z,979.59
2019-01-27T07:49:20.605Z,979.60
2019-01-27T07:50:20.579Z,979.65
2019-01-27T07:51:20.560Z,979.64
2019-01-27T07:52:20.529Z,979.60
2019-01-27T07:53:20.507Z,979.62
2019-01-27T07:54:20.483Z,979.61
2019-01-27T07:55:20.459Z,979.65
2019-01-27T07:56:20.433Z,979.60
2019-01-27T07:57:20.419Z,979.64
2019-01-27T07:58:20.393Z,979.59
2019-01-27T07:59:20.360Z,979.61
2019-01-27T08:00:20.343Z,979.60
2019-01-27T08:01:20.318Z,979.52
2019-01-27T08:02:20.287Z,979.51
2019-01-27T08:03:20.269Z,979.53
2019-01-27T08:04:20.235Z,979.53
2019-01-27T08:05:20.223Z,979.52
2019-01-27T08:06:20.186Z,979.52
2019-01-27T08:07:20.163Z,979.50
2019-01-27T08:08:20.138Z,979.54
2019-01-27T08:09:20.114Z,979.48
2019-01-27T08:10:20.089Z,979.47
2019-01-27T08:11:20.067Z,979.42
2019-01-27T08:12:20.040Z,979.43
2019-01-27T08:13:20.019Z,979.42
2019-01-27T08:14:19.992Z,979.42
2019-01-27T08:15:19.968Z,979.37
2019-01-27T08:16:19.944Z,979.36
2019-01-27T08:17:19.921Z,979.38
2019-01-27T08:18:19.895Z,979.43
2019-01-27T08:19:19.872Z,979.43
2019-01-27T08:20:19.845Z,979.38
2019-01-27T08:21:19.826Z,979.39
2019-01-27T08:22:19.799Z,979.43
2019-01-27T08:23:19.790Z,979.37
2019-01-27T08:24:19.753Z,979.41
2019-01-27T08:25:19.722Z,979.39
2019-01-27T08:26:19.703Z,979.38
2019-01-27T08:27:19.676Z,979.42
2019-01-27T08:28:19.650Z,979.34
2019-01-27T08:29:19.623Z,979.39
2019-01-27T08:30:19.609Z,979.32
2019-01-27T08:31:19.577Z,979.37
2019-01-27T08:32:19.551Z,979.37
2019-01-27T08:33:19.526Z,979.34
2019-01-27T08:34:19.505Z,979.37
2019-01-27T08:35:19.485Z,979.35
2019-01-27T08:36:19.460Z,979.36
2019-01-27T08:37:19.439Z,979.32
2019-01-27T08:38:19.409Z,979.41
2019-01-27T08:39:19.390Z,979.36
2019-01-27T08:40:19.363Z,979.33
2019-01-27T08:41:19.339Z,979.33
2019-01-27T08:42:19.312Z,979.34
2019-01-27T08:43:19.286Z,979.29
2019-01-27T08:44:19.263Z,979.29
2019-01-27T08:45:19.237Z,979.31
2019-01-27T08:46:19.216Z,979.22
2019-01-27T08:47:19.298Z,979.27
2019-01-27T08:48:19.162Z,979.20
2019-01-27T08:49:19.139Z,979.20
2019-01-27T08:50:19.118Z,979.23
2019-01-27T08:51:19.095Z,979.22
2019-01-27T08:52:19.067Z,979.14
2019-01-27T08:53:19.045Z,979.13
2019-01-27T08:54:19.022Z,979.13
2019-01-27T08:55:18.994Z,979.11
2019-01-27T08:56:18.980Z,979.10
2019-01-27T08:57:18.951Z,979.14
2019-01-27T08:58:18.921Z,979.16
2019-01-27T08:59:18.897Z,979.11
2019-01-27T09:00:18.875Z,979.13
2019-01-27T09:01:18.855Z,979.09
2019-01-27T09:02:18.823Z,979.06
2019-01-27T09:03:18.800Z,979.11
2019-01-27T09:04:18.788Z,979.11
2019-01-27T09:05:18.752Z,979.11
2019-01-27T09:06:18.728Z,979.05
2019-01-27T09:07:18.706Z,979.09
2019-01-27T09:08:18.688Z,979.10
2019-01-27T09:09:18.673Z,979.07
2019-01-27T09:10:18.645Z,979.06
2019-01-27T09:11:18.608Z,979.08
2019-01-27T09:12:18.594Z,979.11
2019-01-27T09:13:18.559Z,979.07
2019-01-27T09:14:18.533Z,979.07
2019-01-27T09:15:18.515Z,979.07
2019-01-27T09:16:18.490Z,979.06
2019-01-27T09:17:18.461Z,979.03
2019-01-27T09:18:18.446Z,979.02
2019-01-27T09:19:18.412Z,979.05
2019-01-27T09:20:18.391Z,979.01
2019-01-27T09:21:18.364Z,979.00
2019-01-27T09:22:18.342Z,979.02
2019-01-27T09:23:18.320Z,979.05
2019-01-27T09:24:18.292Z,979.01
2019-01-27T09:25:18.276Z,979.04
2019-01-27T09:26:18.246Z,979.03
2019-01-27T09:27:18.341Z,978.99
2019-01-27T09:28:18.195Z,978.94
2019-01-27T09:29:18.172Z,978.98
2019-01-27T09:30:18.155Z,978.97
2019-01-27T09:31:18.137Z,979.00
2019-01-27T09:32:18.098Z,979.00
2019-01-27T09:33:18.076Z,979.00
2019-01-27T09:34:18.059Z,978.97
2019-01-27T09:35:18.027Z,978.97
2019-01-27T09:36:18.005Z,978.93
2019-01-27T09:37:17.980Z,978.98
2019-01-27T09:38:17.959Z,979.00
2019-01-27T09:39:17.968Z,978.96
2019-01-27T09:40:17.907Z,978.95
2019-01-27T09:41:17.894Z,978.94
2019-01-27T09:42:17.858Z,978.96
2019-01-27T09:43:17.833Z,978.93
2019-01-27T09:44:17.828Z,978.91
2019-01-27T09:45:17.790Z,978.91
2019-01-27T09:46:17.764Z,978.95
2019-01-27T09:47:17.737Z,978.90
2019-01-27T09:48:17.751Z,978.92
2019-01-27T09:49:17.695Z,978.95
2019-01-27T09:50:17.665Z,978.93
2019-01-27T09:51:17.642Z,978.91
2019-01-27T09:52:17.616Z,978.87
2019-01-27T09:53:17.593Z,978.92
2019-01-27T09:54:17.572Z,978.91
2019-01-27T09:55:17.544Z,978.94
2019-01-27T09:56:17.521Z,978.92
2019-01-27T09:57:17.496Z,978.93
2019-01-27T09:58:17.482Z,978.93
2019-01-27T09:59:17.457Z,978.94
2019-01-27T10:00:17.422Z,978.93
2019-01-27T10:01:17.407Z,978.93
2019-01-27T10:02:17.375Z,978.87
2019-01-27T10:03:17.351Z,978.93
2019-01-27T10:04:17.329Z,978.89
2019-01-27T10:05:17.308Z,978.90
2019-01-27T10:06:17.289Z,978.88
2019-01-27T10:07:17.253Z,978.87
2019-01-27T10:08:17.235Z,978.90
2019-01-27T10:09:17.215Z,978.84
2019-01-27T10:10:17.180Z,978.93
2019-01-27T10:11:17.163Z,978.83
2019-01-27T10:12:17.143Z,978.86
2019-01-27T10:13:17.110Z,978.90
2019-01-27T10:14:17.087Z,978.86
2019-01-27T10:15:18.353Z,978.90
2019-01-27T10:16:17.037Z,978.88
2019-01-27T10:17:17.013Z,978.92
2019-01-27T10:18:16.995Z,978.89
2019-01-27T10:19:16.974Z,978.91
2019-01-27T10:20:16.944Z,978.83
2019-01-27T10:21:16.922Z,978.84
2019-01-27T10:22:16.893Z,978.84
2019-01-27T10:23:16.877Z,978.84
2019-01-27T10:24:16.861Z,978.87
2019-01-27T10:25:16.830Z,978.87
2019-01-27T10:26:16.811Z,978.88
2019-01-27T10:27:16.774Z,978.83
2019-01-27T10:28:16.752Z,978.80
2019-01-27T10:29:16.724Z,978.86
2019-01-27T10:30:16.698Z,978.76
2019-01-27T10:31:16.687Z,978.78
2019-01-27T10:32:16.665Z,978.76
2019-01-27T10:33:16.635Z,978.80
2019-01-27T10:34:16.604Z,978.78
2019-01-27T10:35:16.581Z,978.77
2019-01-27T10:36:16.564Z,978.74
2019-01-27T10:37:16.534Z,978.75
2019-01-27T10:38:16.517Z,978.72
2019-01-27T10:39:16.502Z,978.76
2019-01-27T10:40:17.198Z,978.75
2019-01-27T10:41:16.440Z,978.74
2019-01-27T10:42:16.420Z,978.78
2019-01-27T10:43:16.399Z,978.67
2019-01-27T10:44:16.364Z,978.72
2019-01-27T10:45:16.339Z,978.69
2019-01-27T10:46:16.339Z,978.71
2019-01-27T10:47:16.293Z,978.67
2019-01-27T10:48:16.266Z,978.66
2019-01-27T10:49:16.243Z,978.68
2019-01-27T10:50:16.225Z,978.69
2019-01-27T10:51:16.199Z,978.66
2019-01-27T10:52:16.169Z,978.66
2019-01-27T10:53:20.790Z,978.65
2019-01-27T10:54:16.121Z,978.56
2019-01-27T10:55:16.120Z,978.65
2019-01-27T10:56:16.074Z,978.65
2019-01-27T10:57:16.057Z,978.63
2019-01-27T10:58:16.034Z,978.59
2019-01-27T10:59:16.002Z,978.63
2019-01-27T11:00:15.983Z,978.60
2019-01-27T11:01:15.960Z,978.59
2019-01-27T11:02:15.930Z,978.59
2019-01-27T11:03:15.914Z,978.58
2019-01-27T11:04:15.891Z,978.52
2019-01-27T11:05:15.866Z,978.55
2019-01-27T11:06:15.834Z,978.52
2019-01-27T11:07:15.810Z,978.49
2019-01-27T11:08:15.786Z,978.50
2019-01-27T11:09:15.765Z,978.53
2019-01-27T11:10:15.746Z,978.54
2019-01-27T11:11:15.723Z,978.45
2019-01-27T11:12:15.693Z,978.49
2019-01-27T11:13:15.665Z,978.48
2019-01-27T11:14:15.642Z,978.40
2019-01-27T11:15:15.633Z,978.45
2019-01-27T11:16:15.604Z,978.54
2019-01-27T11:17:15.577Z,978.42
2019-01-27T11:18:15.556Z,978.44
2019-01-27T11:19:15.531Z,978.39
2019-01-27T11:20:15.507Z,978.44
2019-01-27T11:21:15.472Z,978.40
2019-01-27T11:22:15.449Z,978.36
2019-01-27T11:23:15.426Z,978.39
2019-01-27T11:24:15.398Z,978.38
2019-01-27T11:25:15.516Z,978.38
2019-01-27T11:26:15.359Z,978.36
2019-01-27T11:27:15.334Z,978.34
2019-01-27T11:28:15.304Z,978.34
2019-01-27T11:29:15.277Z,978.40
2019-01-27T11:30:15.259Z,978.36
2019-01-27T11:31:15.238Z,978.36
2019-01-27T11:32:15.206Z,978.33
2019-01-27T11:33:15.189Z,978.36
2019-01-27T11:34:15.168Z,978.32
2019-01-27T11:35:15.145Z,978.31
2019-01-27T11:36:15.113Z,978.28
2019-01-27T11:37:15.085Z,978.27
2019-01-27T11:38:15.080Z,978.26
2019-01-27T11:39:15.056Z,978.23
2019-01-27T11:40:15.013Z,978.26
2019-01-27T11:41:14.992Z,978.24
2019-01-27T11:42:14.965Z,978.19
2019-01-27T11:43:14.940Z,978.17
2019-01-27T11:44:14.923Z,978.21
2019-01-27T11:45:14.892Z,978.16
2019-01-27T11:46:14.874Z,978.17
2019-01-27T11:47:14.844Z,978.16
2019-01-27T11:48:14.821Z,978.14
2019-01-27T11:49:14.797Z,978.13
2019-01-27T11:50:14.773Z,978.18
2019-01-27T11:51:14.747Z,978.10
2019-01-27T11:52:15.527Z,978.12
2019-01-27T11:53:14.712Z,978.11
2019-01-27T11:54:14.684Z,978.07
2019-01-27T11:55:14.665Z,978.06
2019-01-27T11:56:14.641Z,978.05
2019-01-27T11:57:14.613Z,978.04
2019-01-27T11:58:14.593Z,978.08
2019-01-27T11:59:14.556Z,978.02
2019-01-27T12:00:14.530Z,978.07
2019-01-27T12:01:14.517Z,978.03
2019-01-27T12:02:14.488Z,978.04
2019-01-27T12:03:14.482Z,978.03
2019-01-27T12:04:14.439Z,978.02
2019-01-27T12:05:14.419Z,977.98
2019-01-27T12:06:14.398Z,977.98
2019-01-27T12:07:14.362Z,978.02
2019-01-27T12:08:14.337Z,978.01
2019-01-27T12:09:14.320Z,977.99
2019-01-27T12:10:14.290Z,977.98
2019-01-27T12:11:14.271Z,978.02
2019-01-27T12:12:14.243Z,977.97
2019-01-27T12:13:14.218Z,977.98
2019-01-27T12:14:14.193Z,977.98
2019-01-27T12:15:14.192Z,977.94
2019-01-27T12:16:14.144Z,977.89
2019-01-27T12:17:14.128Z,977.91
2019-01-27T12:18:14.117Z,977.91
2019-01-27T12:19:14.076Z,977.88
2019-01-27T12:20:14.055Z,977.89
2019-01-27T12:21:14.024Z,977.85
2019-01-27T12:22:14.001Z,977.87
2019-01-27T12:23:13.978Z,977.82
2019-01-27T12:24:13.952Z,977.84
2019-01-27T12:25:13.926Z,977.80
2019-01-27T12:26:13.911Z,977.81
2019-01-27T12:27:13.882Z,977.82
2019-01-27T12:28:13.864Z,977.81